Time;durP1;ratioP1;P1;durP2;ratioP2;P2;SDS_P1;SDS_P2;PMS_P1;PMS_P2;Temp;Humidity;BMP_temperature;BMP_pressure;BME280_temperature;BME280_humidity;BME280_pressure;Samples;Min_cycle;Max_cycle;Signal;HPM_P1;HPM_P2
2023/03/16 00:02:33;;;;;;;5.60;3.40;;;;;5.70;101170.00;;;;9710438;30;20246;-80
2023/03/16 00:07:35;;;;;;;7.53;4.07;;;;;5.70;101175.00;;;;9721850;30;20229;-80
2023/03/16 00:12:37;;;;;;;5.87;3.50;;;;;5.70;101164.00;;;;9723014;30;20305;-79
2023/03/16 00:17:39;;;;;;;8.73;3.83;;;;;5.70;101164.00;;;;9706579;30;20214;-80
2023/03/16 00:22:41;;;;;;;5.50;3.80;;;;;5.80;101158.00;;;;9734109;30;20232;-80
2023/03/16 00:27:43;;;;;;;6.53;3.73;;;;;5.80;101152.00;;;;9694222;30;20235;-81
2023/03/16 00:32:45;;;;;;;12.67;3.80;;;;;5.80;101163.00;;;;9709047;30;20205;-79
2023/03/16 00:37:51;;;;;;;6.10;3.60;;;;;5.80;101159.00;;;;9751834;30;20213;-80
2023/03/16 00:42:53;;;;;;;6.37;3.30;;;;;5.70;101155.00;;;;9730951;30;20664;-80
2023/03/16 00:47:56;;;;;;;4.90;3.17;;;;;5.70;101158.00;;;;9749870;30;20292;-80
2023/03/16 00:52:57;;;;;;;6.07;3.67;;;;;5.70;101147.00;;;;9722205;30;20214;-79
2023/03/16 00:58:03;;;;;;;4.07;2.70;;;;;5.70;101141.00;;;;9678840;30;20215;-80
2023/03/16 01:03:05;;;;;;;8.83;3.30;;;;;5.70;101138.00;;;;9696744;30;20216;-80
2023/03/16 01:08:08;;;;;;;5.60;2.80;;;;;5.70;101126.00;;;;9724511;30;20227;-80
2023/03/16 01:13:11;;;;;;;4.43;2.67;;;;;5.70;101127.00;;;;9733099;30;20251;-79
2023/03/16 01:18:13;;;;;;;4.83;3.00;;;;;5.80;101109.00;;;;9729207;30;20320;-81
2023/03/16 01:23:17;;;;;;;5.33;2.90;;;;;5.80;101116.00;;;;9743361;30;20214;-80
2023/03/16 01:28:20;;;;;;;4.90;2.43;;;;;5.80;101105.00;;;;9714141;30;20226;-80
2023/03/16 01:33:24;;;;;;;5.33;2.73;;;;;5.80;101110.00;;;;9758509;30;20206;-79
2023/03/16 01:38:27;;;;;;;5.57;2.60;;;;;5.90;101107.00;;;;9742627;30;20225;-81
2023/03/16 01:43:32;;;;;;;4.83;2.97;;;;;5.80;101102.00;;;;9720941;30;20332;-81
2023/03/16 01:48:46;;;;;;;8.87;3.37;;;;;5.80;101093.00;;;;9727872;30;20234;-80
2023/03/16 01:53:57;;;;;;;4.40;2.80;;;;;5.90;101103.00;;;;9742678;30;20268;-80
2023/03/16 01:59:04;;;;;;;6.17;3.57;;;;;5.90;101099.00;;;;9726305;30;20250;-79
2023/03/16 02:04:15;;;;;;;5.87;2.73;;;;;5.90;101086.00;;;;9722297;30;20211;-80
2023/03/16 02:09:18;;;;;;;5.33;2.23;;;;;5.90;101090.00;;;;9727952;30;20230;-81
2023/03/16 02:14:20;;;;;;;5.93;2.47;;;;;5.80;101073.00;;;;9744410;30;20218;-80
2023/03/16 02:19:43;;;;;;;3.20;2.50;;;;;5.70;101067.00;;;;9717676;30;20210;-80
2023/03/16 02:24:45;;;;;;;6.57;2.33;;;;;5.70;101054.00;;;;9711866;30;20276;-80
2023/03/16 02:29:51;;;;;;;6.30;2.53;;;;;5.70;101055.00;;;;9740994;30;20231;-80
2023/03/16 02:34:54;;;;;;;4.93;2.50;;;;;5.60;101047.00;;;;9704064;30;20306;-79
2023/03/16 02:39:56;;;;;;;8.50;3.20;;;;;5.70;101038.00;;;;9743516;30;20234;-80
2023/03/16 02:44:59;;;;;;;6.40;2.67;;;;;5.70;101031.00;;;;9690696;30;20239;-79
2023/03/16 02:50:07;;;;;;;9.40;3.27;;;;;5.70;101027.00;;;;9676624;30;20245;-80
2023/03/16 02:55:10;;;;;;;6.13;2.63;;;;;5.70;101023.00;;;;9690763;30;20308;-79
2023/03/16 03:00:17;;;;;;;5.83;2.77;;;;;5.70;101016.00;;;;9740338;30;20984;-79
2023/03/16 03:05:23;;;;;;;6.63;2.77;;;;;5.70;101017.00;;;;9715667;30;20225;-80
2023/03/16 03:10:26;;;;;;;2.67;1.93;;;;;5.70;101014.00;;;;9725740;30;20244;-80
2023/03/16 03:15:30;;;;;;;10.87;2.63;;;;;5.70;101001.00;;;;9752861;30;20210;-79
2023/03/16 03:20:38;;;;;;;3.67;2.00;;;;;5.70;100998.00;;;;9705336;30;20214;-81
2023/03/16 03:25:40;;;;;;;4.37;1.70;;;;;5.70;100990.00;;;;9714282;30;20203;-80
2023/03/16 03:30:42;;;;;;;5.63;2.00;;;;;5.70;100996.00;;;;9689022;30;20233;-80
2023/03/16 03:35:45;;;;;;;2.87;2.00;;;;;5.70;100985.00;;;;9710393;30;20229;-80
2023/03/16 03:40:52;;;;;;;4.73;2.00;;;;;5.70;100975.00;;;;9710843;30;20279;-79
2023/03/16 03:45:56;;;;;;;4.13;2.30;;;;;5.70;100981.00;;;;9724541;30;20853;-79
2023/03/16 03:50:58;;;;;;;4.30;1.87;;;;;5.80;100975.00;;;;9739302;30;20303;-80
2023/03/16 03:56:30;;;;;;;7.67;2.70;;;;;5.80;100970.00;;;;9735416;30;20226;-79
2023/03/16 04:01:32;;;;;;;7.50;2.13;;;;;5.80;100967.00;;;;9732366;30;20257;-80
2023/03/16 04:06:34;;;;;;;4.33;2.03;;;;;5.80;100958.00;;;;9728856;30;20218;-80
2023/03/16 04:11:37;;;;;;;3.87;2.43;;;;;5.80;100946.00;;;;9749617;30;20226;-79
2023/03/16 04:16:39;;;;;;;5.80;2.00;;;;;5.80;100942.00;;;;9722780;30;20206;-79
2023/03/16 04:21:41;;;;;;;6.97;2.30;;;;;5.80;100947.00;;;;9735072;30;20214;-80
2023/03/16 04:26:44;;;;;;;5.20;2.27;;;;;5.80;100937.00;;;;9732578;30;20209;-79
2023/03/16 04:31:47;;;;;;;5.53;2.30;;;;;5.80;100937.00;;;;9732050;30;20714;-79
2023/03/16 04:36:51;;;;;;;3.83;2.40;;;;;5.80;100940.00;;;;9736732;30;20195;-81
2023/03/16 04:41:54;;;;;;;6.10;3.17;;;;;5.80;100927.00;;;;9720705;30;20214;-80
2023/03/16 04:46:59;;;;;;;7.80;2.13;;;;;5.80;100923.00;;;;9738678;30;20249;-80
2023/03/16 04:52:09;;;;;;;7.73;2.33;;;;;5.80;100917.00;;;;9747674;30;20296;-80
2023/03/16 04:57:12;;;;;;;6.13;2.10;;;;;5.70;100915.00;;;;9733190;30;20218;-79
2023/03/16 05:02:20;;;;;;;2.97;2.07;;;;;5.70;100914.00;;;;9733425;30;20222;-79
2023/03/16 05:07:23;;;;;;;4.50;2.30;;;;;5.70;100908.00;;;;9719362;30;20213;-79
2023/03/16 05:12:28;;;;;;;3.30;1.73;;;;;5.70;100908.00;;;;9718388;30;20316;-79
2023/03/16 05:17:35;;;;;;;3.53;1.70;;;;;5.70;100908.00;;;;9712382;30;20210;-78
2023/03/16 05:22:42;;;;;;;4.73;1.73;;;;;5.70;100901.00;;;;9726133;30;20214;-78
2023/03/16 05:27:52;;;;;;;6.30;2.10;;;;;5.70;100895.00;;;;9722202;30;20222;-79
2023/03/16 05:33:10;;;;;;;4.07;2.07;;;;;5.70;100898.00;;;;9691702;30;20226;-79
2023/03/16 05:38:14;;;;;;;3.47;2.30;;;;;5.70;100886.00;;;;9716059;30;20210;-79
2023/03/16 05:43:19;;;;;;;2.90;1.70;;;;;5.70;100895.00;;;;9691898;30;20234;-78
2023/03/16 05:48:24;;;;;;;3.83;1.63;;;;;5.70;100895.00;;;;9700502;30;20234;-80
2023/03/16 05:53:29;;;;;;;2.13;1.60;;;;;5.80;100889.00;;;;9714916;30;20218;-79
2023/03/16 05:58:41;;;;;;;4.43;1.80;;;;;5.80;100890.00;;;;9710774;30;20217;-80
2023/03/16 06:03:44;;;;;;;4.50;1.80;;;;;5.90;100889.00;;;;9713723;30;20212;-78
2023/03/16 06:08:52;;;;;;;7.90;2.40;;;;;5.90;100887.00;;;;9725898;30;20498;-79
2023/03/16 06:13:57;;;;;;;3.20;1.70;;;;;6.00;100889.00;;;;9725182;30;20305;-79
2023/03/16 06:18:59;;;;;;;5.47;1.80;;;;;6.10;100881.00;;;;9690809;30;20309;-79
2023/03/16 06:24:03;;;;;;;6.43;1.90;;;;;6.10;100879.00;;;;9725237;30;20211;-79
2023/03/16 06:29:05;;;;;;;6.10;2.00;;;;;6.20;100870.00;;;;9705441;30;20250;-79
2023/03/16 06:34:10;;;;;;;5.40;1.80;;;;;6.20;100859.00;;;;9733383;30;20242;-79
2023/03/16 06:39:13;;;;;;;3.87;1.97;;;;;6.30;100856.00;;;;9715456;30;20571;-79
2023/03/16 06:44:21;;;;;;;2.93;1.43;;;;;6.30;100853.00;;;;9709867;30;20647;-78
2023/03/16 06:49:33;;;;;;;4.13;1.83;;;;;6.40;100868.00;;;;9691432;30;20239;-78
2023/03/16 06:54:40;;;;;;;3.87;1.73;;;;;6.60;100863.00;;;;9724615;30;20313;-79
2023/03/16 06:59:44;;;;;;;8.13;1.97;;;;;6.70;100872.00;;;;9719140;30;20293;-78
2023/03/16 07:04:46;;;;;;;3.90;2.20;;;;;6.70;100880.00;;;;9717430;30;20207;-79
2023/03/16 07:09:49;;;;;;;3.23;1.50;;;;;6.90;100864.00;;;;9712526;30;20226;-78
2023/03/16 07:14:51;;;;;;;2.83;1.63;;;;;7.00;100873.00;;;;9734456;30;20750;-79
2023/03/16 07:19:58;;;;;;;3.40;1.70;;;;;7.30;100878.00;;;;9705791;30;20225;-79
2023/03/16 07:25:00;;;;;;;3.20;2.10;;;;;7.30;100868.00;;;;9725894;30;20715;-79
2023/03/16 07:30:04;;;;;;;3.57;1.60;;;;;7.40;100865.00;;;;9707099;30;20810;-79
2023/03/16 07:35:10;;;;;;;8.13;2.17;;;;;7.50;100857.00;;;;9722079;30;20214;-78
2023/03/16 07:40:13;;;;;;;6.07;1.93;;;;;7.60;100856.00;;;;9711847;30;20202;-79
2023/03/16 07:45:16;;;;;;;3.90;1.83;;;;;8.10;100862.00;;;;9712310;30;20246;-79
2023/03/16 07:50:21;;;;;;;4.50;2.03;;;;;9.10;100853.00;;;;9704892;30;20281;-79
2023/03/16 07:55:23;;;;;;;4.30;1.70;;;;;9.30;100864.00;;;;9693312;30;20210;-79
2023/03/16 08:00:28;;;;;;;3.57;1.77;;;;;9.50;100859.00;;;;9725995;30;20257;-79
2023/03/16 08:05:31;;;;;;;4.70;1.60;;;;;9.70;100857.00;;;;9712547;30;20213;-78
2023/03/16 08:10:36;;;;;;;2.30;1.50;;;;;9.80;100860.00;;;;9724829;30;20598;-79
2023/03/16 08:15:46;;;;;;;3.27;1.60;;;;;10.30;100870.00;;;;9724134;30;20202;-78
2023/03/16 08:21:00;;;;;;;5.67;1.87;;;;;10.20;100864.00;;;;9696433;30;20222;-78
2023/03/16 08:26:07;;;;;;;3.17;1.40;;;;;10.70;100866.00;;;;9711559;30;20214;-79
2023/03/16 08:31:11;;;;;;;2.73;1.50;;;;;11.20;100861.00;;;;9704179;30;20284;-79
2023/03/16 08:36:29;;;;;;;6.07;1.70;;;;;11.70;100850.00;;;;9725442;30;20227;-78
2023/03/16 08:41:33;;;;;;;3.53;1.30;;;;;11.90;100849.00;;;;9693105;30;20214;-79
2023/03/16 08:46:41;;;;;;;4.50;1.30;;;;;12.40;100838.00;;;;9685417;30;20266;-79
2023/03/16 08:51:43;;;;;;;3.63;1.40;;;;;13.00;100836.00;;;;9689018;30;20325;-78
2023/03/16 08:56:46;;;;;;;3.20;1.50;;;;;13.40;100836.00;;;;9724849;30;20292;-79
2023/03/16 09:01:48;;;;;;;4.33;1.27;;;;;13.90;100844.00;;;;9714408;30;20219;-78
2023/03/16 09:06:50;;;;;;;1.47;1.20;;;;;13.80;100847.00;;;;9713227;30;20204;-79
2023/03/16 09:12:09;;;;;;;2.47;1.10;;;;;13.60;100844.00;;;;9707554;30;20249;-78
2023/03/16 09:17:11;;;;;;;2.60;1.17;;;;;13.50;100844.00;;;;9743811;30;20313;-78
2023/03/16 09:22:13;;;;;;;2.97;1.40;;;;;13.40;100848.00;;;;9717571;30;20206;-79
2023/03/16 09:27:16;;;;;;;3.80;1.20;;;;;13.40;100853.00;;;;9717582;30;20214;-80
2023/03/16 09:32:19;;;;;;;2.27;1.20;;;;;13.30;100844.00;;;;9716513;30;20237;-80
2023/03/16 09:37:22;;;;;;;1.73;0.90;;;;;13.20;100838.00;;;;9714113;30;20230;-79
2023/03/16 09:42:42;;;;;;;4.30;1.17;;;;;13.20;100844.00;;;;9722666;30;20667;-80
2023/03/16 09:47:48;;;;;;;2.77;0.97;;;;;13.40;100829.00;;;;9741415;30;20218;-80
2023/03/16 09:53:07;;;;;;;5.73;1.27;;;;;13.80;100815.00;;;;9707405;30;20226;-80
2023/03/16 09:58:16;;;;;;;2.67;1.00;;;;;14.20;100817.00;;;;9715100;30;20289;-79
2023/03/16 10:03:47;;;;;;;3.33;1.20;;;;;14.60;100827.00;;;;9705145;30;20214;-79
2023/03/16 10:09:21;;;;;;;3.37;1.10;;;;;14.70;100820.00;;;;9716728;30;20346;-81
2023/03/16 10:14:40;;;;;;;4.63;0.95;;;;;14.70;100822.00;;;;9718147;30;20210;-80
2023/03/16 10:20:21;;;;;;;4.05;0.90;;;;;15.20;100802.00;;;;9710879;30;20221;-79
2023/03/16 10:25:41;;;;;;;2.15;1.10;;;;;15.80;100792.00;;;;9635382;30;20207;-80
2023/03/16 10:30:44;;;;;;;2.17;0.95;;;;;16.30;100791.00;;;;9688930;30;20230;-81
2023/03/16 10:35:51;;;;;;;2.85;0.90;;;;;16.60;100784.00;;;;9709335;30;20242;-80
2023/03/16 10:40:53;;;;;;;3.67;1.00;;;;;16.60;100787.00;;;;9697900;30;20226;-80
2023/03/16 10:46:01;;;;;;;4.28;1.02;;;;;17.10;100779.00;;;;9707750;30;20296;-80
2023/03/16 10:51:10;;;;;;;1.95;0.85;;;;;17.00;100771.00;;;;9724474;30;20257;-80
2023/03/16 10:56:27;;;;;;;2.63;0.70;;;;;17.00;100732.00;;;;9717394;30;20496;-80
2023/03/16 11:01:30;;;;;;;2.28;0.90;;;;;17.20;100744.00;;;;9732352;30;20202;-80
2023/03/16 11:06:33;;;;;;;1.00;0.63;;;;;17.30;100752.00;;;;9686782;30;20794;-77
2023/03/16 11:11:35;;;;;;;3.47;0.95;;;;;17.40;100738.00;;;;9736142;30;20658;-79
2023/03/16 11:16:56;;;;;;;2.90;1.40;;;;;17.20;100740.00;;;;9721977;30;20218;-79
2023/03/16 11:22:25;;;;;;;2.25;0.80;;;;;17.50;100732.00;;;;9690306;30;20237;-80
2023/03/16 11:27:39;;;;;;;4.90;1.10;;;;;17.60;100718.00;;;;9717709;30;20214;-78
2023/03/16 11:32:47;;;;;;;2.30;0.80;;;;;17.90;100713.00;;;;9731775;30;20230;-76
2023/03/16 11:37:49;;;;;;;2.70;0.70;;;;;17.50;100721.00;;;;9719299;30;20210;-80
2023/03/16 11:43:21;;;;;;;1.65;0.85;;;;;17.20;100721.00;;;;9719821;30;20222;-77
2023/03/16 11:48:41;;;;;;;3.20;1.00;;;;;16.70;100714.00;;;;9710946;30;20225;-80
2023/03/16 11:54:23;;;;;;;2.92;1.05;;;;;16.60;100698.00;;;;9737978;30;20237;-79
2023/03/16 11:59:54;;;;;;;1.52;0.88;;;;;16.50;100703.00;;;;9702814;30;20297;-80
2023/03/16 12:05:38;;;;;;;3.55;1.10;;;;;17.20;100689.00;;;;9702894;30;20219;-80
2023/03/16 12:10:51;;;;;;;3.45;1.20;;;;;17.90;100670.00;;;;9735762;30;20218;-78
2023/03/16 12:16:00;;;;;;;3.00;1.27;;;;;18.30;100650.00;;;;9720106;30;20261;-78
2023/03/16 12:21:11;;;;;;;1.13;0.88;;;;;18.50;100662.00;;;;9713943;30;20222;-77
2023/03/16 12:26:13;;;;;;;1.73;0.85;;;;;18.60;100666.00;;;;9739996;30;20293;-78
2023/03/16 12:31:22;;;;;;;1.33;0.82;;;;;18.60;100653.00;;;;9716678;30;20251;-78
2023/03/16 12:36:36;;;;;;;2.30;1.10;;;;;18.60;100635.00;;;;9682720;30;20238;-77
2023/03/16 12:42:20;;;;;;;1.60;1.00;;;;;18.50;100633.00;;;;9682086;30;20215;-78
2023/03/16 12:47:36;;;;;;;3.17;0.88;;;;;18.60;100610.00;;;;9695083;30;20237;-78
2023/03/16 12:52:40;;;;;;;3.58;1.00;;;;;18.80;100606.00;;;;9680257;30;20603;-78
2023/03/16 12:57:44;;;;;;;2.05;0.82;;;;;18.20;100590.00;;;;9723779;30;20579;-78
2023/03/16 13:02:55;;;;;;;2.40;1.13;;;;;18.30;100572.00;;;;9715142;30;20202;-78
2023/03/16 13:08:16;;;;;;;1.40;1.00;;;;;18.50;100558.00;;;;9715868;30;20210;-80
2023/03/16 13:13:24;;;;;;;1.95;0.93;;;;;18.80;100564.00;;;;9736732;30;20260;-79
2023/03/16 13:18:43;;;;;;;1.95;1.20;;;;;19.10;100563.00;;;;9717033;30;20206;-80
2023/03/16 13:23:57;;;;;;;1.88;1.00;;;;;18.90;100567.00;;;;9709862;30;20759;-81
2023/03/16 13:28:59;;;;;;;1.25;0.90;;;;;18.80;100556.00;;;;9708639;30;20202;-79
2023/03/16 13:34:04;;;;;;;1.77;1.10;;;;;19.30;100556.00;;;;9733297;30;20879;-79
2023/03/16 13:39:17;;;;;;;2.05;0.75;;;;;20.20;100544.00;;;;9699729;30;20223;-80
2023/03/16 13:44:22;;;;;;;2.03;0.90;;;;;21.60;100536.00;;;;9748706;30;20757;-80
2023/03/16 13:49:25;;;;;;;2.22;0.95;;;;;22.50;100524.00;;;;9730153;30;20210;-79
2023/03/16 13:54:29;;;;;;;2.90;1.00;;;;;23.00;100506.00;;;;9715623;30;20327;-81
2023/03/16 13:59:31;;;;;;;3.03;0.90;;;;;23.20;100482.00;;;;9715422;30;20233;-80
2023/03/16 14:04:33;;;;;;;2.03;0.90;;;;;23.60;100478.00;;;;9729532;30;20208;-80
2023/03/16 14:09:36;;;;;;;3.20;1.10;;;;;24.00;100466.00;;;;9698388;30;20249;-79
2023/03/16 14:14:40;;;;;;;2.45;1.23;;;;;24.50;100429.00;;;;9741848;30;20268;-77
2023/03/16 14:19:49;;;;;;;1.55;0.95;;;;;22.70;100454.00;;;;9727704;30;20237;-78
2023/03/16 14:24:55;;;;;;;1.13;0.90;;;;;23.60;100437.00;;;;9724185;30;20354;-78
2023/03/16 14:30:14;;;;;;;4.30;1.30;;;;;24.40;100457.00;;;;9729249;30;20233;-77
2023/03/16 14:35:20;;;;;;;1.63;0.80;;;;;21.90;100477.00;;;;9713162;30;20216;-78
2023/03/16 14:40:30;;;;;;;3.42;0.90;;;;;19.70;100490.00;;;;9727201;30;20404;-79
2023/03/16 14:45:34;;;;;;;1.35;0.77;;;;;18.00;100479.00;;;;9740874;30;20237;-80
2023/03/16 14:50:37;;;;;;;2.42;0.95;;;;;17.40;100472.00;;;;9726077;30;20261;-79
2023/03/16 14:55:39;;;;;;;2.67;0.73;;;;;17.50;100458.00;;;;9712017;30;20214;-78
2023/03/16 15:00:42;;;;;;;3.00;1.10;;;;;18.80;100433.00;;;;9704682;30;20203;-78
2023/03/16 15:05:54;;;;;;;1.83;0.90;;;;;20.30;100401.00;;;;9715519;30;20815;-78
2023/03/16 15:10:59;;;;;;;2.47;1.13;;;;;22.90;100380.00;;;;9725647;30;20244;-78
2023/03/16 15:16:06;;;;;;;2.65;1.00;;;;;21.00;100433.00;;;;9696945;30;20241;-79
2023/03/16 15:21:14;;;;;;;3.53;1.27;;;;;19.90;100415.00;;;;9724274;30;20250;-79
2023/03/16 15:26:21;;;;;;;2.45;0.85;;;;;20.80;100402.00;;;;9711091;30;20321;-78
2023/03/16 15:31:26;;;;;;;1.60;1.10;;;;;19.90;100416.00;;;;9722530;30;20758;-79
2023/03/16 15:36:28;;;;;;;2.55;1.00;;;;;20.00;100408.00;;;;9719342;30;20215;-78
2023/03/16 15:41:30;;;;;;;2.20;0.90;;;;;19.60;100407.00;;;;9686436;30;20210;-79
2023/03/16 15:46:47;;;;;;;1.88;1.13;;;;;18.40;100413.00;;;;9732991;30;20229;-81
2023/03/16 15:51:50;;;;;;;3.33;0.93;;;;;17.10;100410.00;;;;9722334;30;20288;-78
2023/03/16 15:56:54;;;;;;;1.30;0.90;;;;;16.30;100406.00;;;;9747575;30;20293;-80
2023/03/16 16:01:57;;;;;;;2.13;1.05;;;;;15.80;100399.00;;;;9734468;30;20233;-80
2023/03/16 16:07:01;;;;;;;3.30;0.82;;;;;15.60;100389.00;;;;9706500;30;20219;-81
2023/03/16 16:12:04;;;;;;;1.80;1.00;;;;;15.70;100389.00;;;;9697234;30;20223;-80
2023/03/16 16:17:17;;;;;;;0.70;0.70;;;;;15.60;100389.00;;;;9710108;30;20206;-78
2023/03/16 16:22:20;;;;;;;2.10;1.10;;;;;15.30;100381.00;;;;9735684;30;20202;-80
2023/03/16 16:27:22;;;;;;;1.90;1.00;;;;;15.10;100378.00;;;;9691502;30;20210;-80
2023/03/16 16:32:25;;;;;;;3.00;1.10;;;;;14.90;100380.00;;;;9701691;30;20607;-81
2023/03/16 16:37:27;;;;;;;2.67;1.10;;;;;14.70;100379.00;;;;9731944;30;20625;-80
2023/03/16 16:42:29;;;;;;;2.77;1.10;;;;;14.50;100372.00;;;;9713195;30;20308;-80
2023/03/16 16:47:31;;;;;;;8.17;1.40;;;;;14.20;100365.00;;;;9719084;30;20300;-80
2023/03/16 16:52:33;;;;;;;1.23;0.93;;;;;14.00;100362.00;;;;9708276;30;20277;-81
2023/03/16 16:57:35;;;;;;;1.50;1.10;;;;;13.80;100352.00;;;;9694479;30;20249;-80
2023/03/16 17:02:46;;;;;;;1.83;1.00;;;;;13.60;100364.00;;;;9708405;30;20214;-80
2023/03/16 17:07:50;;;;;;;2.13;1.10;;;;;13.40;100355.00;;;;9709180;30;20724;-81
2023/03/16 17:12:55;;;;;;;3.93;1.30;;;;;13.20;100348.00;;;;9705487;30;20226;-80
2023/03/16 17:18:06;;;;;;;2.10;0.90;;;;;13.10;100353.00;;;;9710259;30;20214;-80
2023/03/16 17:23:24;;;;;;;2.07;1.30;;;;;12.90;100345.00;;;;9744600;30;20690;-80
2023/03/16 17:28:30;;;;;;;3.23;1.20;;;;;12.80;100344.00;;;;9680412;30;20233;-81
2023/03/16 17:33:32;;;;;;;3.10;1.30;;;;;12.60;100338.00;;;;9702052;30;20245;-80
2023/03/16 17:38:35;;;;;;;4.10;1.20;;;;;12.30;100336.00;;;;9734152;30;20220;-80
2023/03/16 17:43:37;;;;;;;2.00;1.40;;;;;12.10;100344.00;;;;9724862;30;20304;-80
2023/03/16 17:48:39;;;;;;;2.87;1.30;;;;;12.00;100347.00;;;;9726476;30;20222;-80
2023/03/16 17:53:42;;;;;;;2.73;1.30;;;;;11.80;100343.00;;;;9735376;30;20333;-81
2023/03/16 17:58:47;;;;;;;4.23;1.37;;;;;11.70;100338.00;;;;9738422;30;20301;-81
2023/03/16 18:03:50;;;;;;;2.27;1.43;;;;;11.60;100338.00;;;;9697177;30;20914;-81
2023/03/16 18:08:52;;;;;;;2.77;1.20;;;;;11.50;100343.00;;;;9704718;30;20221;-80
2023/03/16 18:13:54;;;;;;;2.00;1.30;;;;;11.40;100347.00;;;;9688243;30;20239;-80
2023/03/16 18:19:04;;;;;;;2.97;1.73;;;;;11.40;100355.00;;;;9722469;30;20206;-80
2023/03/16 18:24:14;;;;;;;2.17;1.60;;;;;11.30;100343.00;;;;9722264;30;20202;-80
2023/03/16 18:29:17;;;;;;;1.73;1.13;;;;;11.20;100335.00;;;;9715041;30;20235;-80
2023/03/16 18:34:22;;;;;;;3.43;1.80;;;;;11.10;100326.00;;;;9708812;30;20230;-80
2023/03/16 18:39:26;;;;;;;4.80;1.63;;;;;11.10;100319.00;;;;9708564;30;20264;-81
2023/03/16 18:44:29;;;;;;;3.90;1.43;;;;;11.00;100324.00;;;;9718646;30;20723;-80
2023/03/16 18:49:35;;;;;;;3.00;2.10;;;;;10.90;100313.00;;;;9701701;30;20769;-81
2023/03/16 18:54:37;;;;;;;2.43;1.80;;;;;10.80;100306.00;;;;9709075;30;20230;-80
2023/03/16 18:59:40;;;;;;;3.80;2.03;;;;;10.80;100305.00;;;;9708783;30;20206;-80
2023/03/16 19:04:42;;;;;;;5.27;2.50;;;;;10.70;100287.00;;;;9718115;30;20210;-79
2023/03/16 19:09:44;;;;;;;5.07;2.23;;;;;10.60;100298.00;;;;9729829;30;20215;-80
2023/03/16 19:14:46;;;;;;;5.50;2.60;;;;;10.60;100294.00;;;;9729337;30;20734;-80
2023/03/16 19:19:48;;;;;;;3.03;2.47;;;;;10.50;100287.00;;;;9712480;30;20243;-81
2023/03/16 19:24:53;;;;;;;2.40;1.70;;;;;10.50;100277.00;;;;9717289;30;20233;-81
2023/03/16 19:29:55;;;;;;;5.63;2.17;;;;;10.60;100278.00;;;;9730935;30;20683;-80
2023/03/16 19:34:57;;;;;;;3.70;1.80;;;;;10.70;100279.00;;;;9706738;30;20317;-80
2023/03/16 19:40:00;;;;;;;4.20;2.10;;;;;10.60;100282.00;;;;9716457;30;20206;-79
2023/03/16 19:45:03;;;;;;;3.57;2.17;;;;;10.60;100288.00;;;;9721682;30;20303;-79
2023/03/16 19:50:13;;;;;;;3.27;1.70;;;;;10.50;100281.00;;;;9721405;30;20301;-80
2023/03/16 19:55:22;;;;;;;3.07;1.77;;;;;10.50;100272.00;;;;9732928;30;20272;-80
2023/03/16 20:00:25;;;;;;;2.40;1.67;;;;;10.60;100263.00;;;;9724469;30;20218;-80
2023/03/16 20:05:29;;;;;;;4.70;2.80;;;;;10.50;100260.00;;;;9743731;30;20234;-81
2023/03/16 20:10:31;;;;;;;4.37;2.10;;;;;10.50;100269.00;;;;9710072;30;20242;-81
2023/03/16 20:15:34;;;;;;;3.90;1.83;;;;;10.50;100258.00;;;;9705192;30;20211;-79
2023/03/16 20:20:36;;;;;;;3.30;2.00;;;;;10.50;100261.00;;;;9704344;30;20217;-80
2023/03/16 20:25:39;;;;;;;2.80;1.93;;;;;10.50;100257.00;;;;9706742;30;20277;-80
2023/03/16 20:30:40;;;;;;;3.60;1.90;;;;;10.50;100258.00;;;;9705111;30;20287;-81
2023/03/16 20:35:43;;;;;;;1.77;1.50;;;;;10.50;100249.00;;;;9718259;30;20654;-81
2023/03/16 20:40:47;;;;;;;3.87;1.90;;;;;10.50;100236.00;;;;9692373;30;20770;-81
2023/03/16 20:45:52;;;;;;;2.57;2.03;;;;;10.60;100233.00;;;;9703988;30;20237;-80
2023/03/16 20:50:56;;;;;;;2.33;1.70;;;;;10.60;100235.00;;;;9707919;30;20822;-79
2023/03/16 20:55:58;;;;;;;1.97;1.50;;;;;10.70;100234.00;;;;9720991;30;20198;-80
2023/03/16 21:01:02;;;;;;;1.87;1.43;;;;;10.70;100227.00;;;;9712886;30;20356;-79
2023/03/16 21:06:09;;;;;;;2.77;1.20;;;;;10.80;100230.00;;;;9748329;30;20210;-80
2023/03/16 21:11:21;;;;;;;3.30;1.70;;;;;10.80;100214.00;;;;9726682;30;20272;-79
2023/03/16 21:16:24;;;;;;;7.33;2.17;;;;;10.80;100190.00;;;;9700316;30;20551;-80
2023/03/16 21:21:26;;;;;;;2.43;1.77;;;;;10.80;100179.00;;;;9739107;30;20241;-81
2023/03/16 21:26:32;;;;;;;2.40;1.20;;;;;10.90;100182.00;;;;9724459;30;20219;-79
2023/03/16 21:31:34;;;;;;;3.50;1.43;;;;;11.00;100168.00;;;;9724671;30;20281;-80
2023/03/16 21:36:37;;;;;;;2.10;1.30;;;;;11.00;100196.00;;;;9720984;30;20214;-80
2023/03/16 21:41:39;;;;;;;2.30;1.30;;;;;11.00;100197.00;;;;9725434;30;20741;-79
2023/03/16 21:46:41;;;;;;;1.60;1.20;;;;;10.90;100206.00;;;;9719167;30;20230;-79
2023/03/16 21:51:43;;;;;;;1.80;1.10;;;;;10.90;100196.00;;;;9722966;30;20234;-80
2023/03/16 21:56:46;;;;;;;1.90;1.17;;;;;11.00;100198.00;;;;9686398;30;20212;-80
2023/03/16 22:01:48;;;;;;;2.13;1.27;;;;;11.10;100197.00;;;;9722254;30;20214;-79
2023/03/16 22:07:10;;;;;;;2.20;1.40;;;;;11.20;100208.00;;;;9705711;30;20215;-80
2023/03/16 22:12:12;;;;;;;2.60;1.00;;;;;11.30;100206.00;;;;9703742;30;20265;-80
2023/03/16 22:17:21;;;;;;;4.10;1.20;;;;;11.30;100189.00;;;;9724566;30;20218;-79
2023/03/16 22:22:23;;;;;;;1.10;1.00;;;;;11.20;100188.00;;;;9719975;30;20202;-79
2023/03/16 22:27:25;;;;;;;2.03;1.07;;;;;11.20;100184.00;;;;9702304;30;20237;-81
2023/03/16 22:32:27;;;;;;;2.43;1.33;;;;;11.10;100177.00;;;;9737384;30;20896;-79
2023/03/16 22:37:29;;;;;;;3.13;1.47;;;;;11.00;100191.00;;;;9718238;30;20324;-81
2023/03/16 22:42:35;;;;;;;2.83;1.33;;;;;10.90;100196.00;;;;9718836;30;20639;-79
2023/03/16 22:47:41;;;;;;;5.33;1.53;;;;;10.90;100178.00;;;;9700224;30;20985;-79
2023/03/16 22:52:46;;;;;;;1.93;1.33;;;;;11.00;100183.00;;;;9705274;30;20257;-79
2023/03/16 22:57:54;;;;;;;1.60;1.10;;;;;11.10;100181.00;;;;9725987;30;20213;-79
2023/03/16 23:02:56;;;;;;;1.67;1.23;;;;;11.10;100187.00;;;;9713695;30;20202;-80
2023/03/16 23:08:01;;;;;;;2.90;1.33;;;;;11.20;100180.00;;;;9737438;30;20210;-78
2023/03/16 23:13:11;;;;;;;4.47;1.20;;;;;11.30;100168.00;;;;9725050;30;20637;-80
2023/03/16 23:18:23;;;;;;;1.87;1.30;;;;;11.30;100176.00;;;;9697985;30;20202;-79
2023/03/16 23:23:25;;;;;;;2.03;1.07;;;;;11.20;100158.00;;;;9725476;30;20690;-79
2023/03/16 23:28:28;;;;;;;3.47;1.37;;;;;11.10;100173.00;;;;9724845;30;20210;-80
2023/03/16 23:33:30;;;;;;;2.10;1.20;;;;;11.10;100161.00;;;;9709658;30;20222;-81
2023/03/16 23:38:31;;;;;;;1.37;1.20;;;;;11.10;100154.00;;;;9739824;30;20647;-79
2023/03/16 23:43:34;;;;;;;1.73;1.00;;;;;11.10;100166.00;;;;9725804;30;20241;-79
2023/03/16 23:48:37;;;;;;;1.50;1.23;;;;;11.00;100167.00;;;;9708423;30;20282;-80
2023/03/16 23:53:40;;;;;;;1.93;1.23;;;;;10.90;100171.00;;;;9715600;30;20707;-80
2023/03/16 23:58:42;;;;;;;2.20;1.30;;;;;10.80;100172.00;;;;9718668;30;20211;-80
